createdAt,value
2019-01-29T00:03:54.999Z,7.43
2019-01-29T00:06:41.591Z,7.53
2019-01-29T00:09:09.180Z,8.57
2019-01-29T00:11:36.651Z,8.77
2019-01-29T00:16:59.511Z,9.43
2019-01-29T00:19:27.377Z,8.87
2019-01-29T00:22:16.017Z,9.27
2019-01-29T00:24:43.479Z,9.17
2019-01-29T00:27:11.132Z,9.80
2019-01-29T00:32:51.916Z,9.73
2019-01-29T00:35:19.263Z,8.17
2019-01-29T00:37:46.501Z,7.93
2019-01-29T00:40:33.123Z,9.80
2019-01-29T00:43:00.358Z,8.10
2019-01-29T00:45:27.923Z,7.77
2019-01-29T00:47:55.129Z,8.30
2019-01-29T00:50:22.672Z,8.53
2019-01-29T00:52:49.966Z,8.80
2019-01-29T00:55:17.546Z,8.67
2019-01-29T00:57:44.827Z,9.13
2019-01-29T01:03:05.953Z,8.83
2019-01-29T01:05:33.165Z,8.83
2019-01-29T01:08:00.458Z,8.17
2019-01-29T01:10:27.987Z,7.93
2019-01-29T01:12:55.218Z,7.93
2019-01-29T01:15:22.434Z,7.90
2019-01-29T01:17:49.674Z,8.07
2019-01-29T01:23:24.159Z,9.23
2019-01-29T01:25:51.734Z,8.03
2019-01-29T01:28:19.198Z,8.57
2019-01-29T01:30:46.489Z,8.63
2019-01-29T01:33:13.719Z,9.27
2019-01-29T01:35:40.954Z,8.63
2019-01-29T01:38:08.182Z,9.10
2019-01-29T01:40:35.385Z,9.90
2019-01-29T01:43:02.615Z,9.83
2019-01-29T01:45:30.162Z,10.00
2019-01-29T01:47:57.455Z,10.77
2019-01-29T01:50:24.691Z,9.60
2019-01-29T01:52:59.132Z,10.80
2019-01-29T01:55:20.873Z,10.30
2019-01-29T01:57:48.470Z,11.33
2019-01-29T02:03:09.446Z,11.30
2019-01-29T02:05:36.706Z,11.30
2019-01-29T02:10:57.964Z,11.57
2019-01-29T02:13:25.182Z,11.07
2019-01-29T02:15:52.413Z,11.07
2019-01-29T02:18:19.638Z,11.57
2019-01-29T02:20:47.170Z,11.23
2019-01-29T02:23:14.390Z,12.00
2019-01-29T02:25:41.622Z,10.77
2019-01-29T02:28:09.140Z,12.23
2019-01-29T02:30:36.361Z,11.53
2019-01-29T02:33:03.774Z,11.40
2019-01-29T02:35:30.994Z,10.87
2019-01-29T02:37:58.230Z,11.40
2019-01-29T02:40:46.802Z,11.73
2019-01-29T02:43:14.038Z,10.33
2019-01-29T02:45:41.262Z,10.10
2019-01-29T02:48:08.762Z,9.77
2019-01-29T02:50:43.786Z,9.13
2019-01-29T02:53:18.082Z,9.17
2019-01-29T02:55:40.030Z,9.13
2019-01-29T02:58:07.482Z,9.00
2019-01-29T03:00:34.715Z,7.57
2019-01-29T03:03:01.952Z,7.87
2019-01-29T03:05:29.183Z,8.50
2019-01-29T03:07:56.393Z,8.07
2019-01-29T03:13:17.626Z,8.13
2019-01-29T03:15:45.181Z,8.50
2019-01-29T03:18:12.734Z,9.73
2019-01-29T03:20:39.961Z,10.20
2019-01-29T03:23:07.190Z,9.77
2019-01-29T03:25:34.698Z,9.73
2019-01-29T03:28:01.909Z,9.33
2019-01-29T03:30:29.138Z,9.67
2019-01-29T03:32:56.399Z,9.63
2019-01-29T03:35:23.673Z,10.03
2019-01-29T03:37:51.012Z,9.60
2019-01-29T03:40:37.798Z,9.43
2019-01-29T03:43:05.318Z,8.77
2019-01-29T03:45:32.545Z,8.87
2019-01-29T03:47:59.759Z,8.80
2019-01-29T03:50:29.061Z,8.57
2019-01-29T03:52:56.270Z,7.60
2019-01-29T03:55:23.726Z,8.93
2019-01-29T03:57:50.938Z,8.47
2019-01-29T04:00:37.520Z,8.57
2019-01-29T04:03:04.730Z,8.87
2019-01-29T04:05:31.954Z,8.70
2019-01-29T04:07:59.446Z,7.83
2019-01-29T04:10:26.682Z,8.03
2019-01-29T04:12:54.175Z,8.13
2019-01-29T04:15:42.218Z,8.07
2019-01-29T04:18:09.454Z,8.17
2019-01-29T04:20:36.729Z,8.50
2019-01-29T04:23:03.970Z,8.13
2019-01-29T04:25:31.502Z,8.67
2019-01-29T04:27:58.729Z,8.50
2019-01-29T04:30:25.966Z,8.70
2019-01-29T04:32:53.208Z,8.87
2019-01-29T04:35:20.432Z,9.07
2019-01-29T04:37:47.659Z,8.90
2019-01-29T04:43:09.189Z,10.60
2019-01-29T04:45:36.403Z,9.37
2019-01-29T04:48:03.707Z,10.07
2019-01-29T04:50:30.919Z,9.40
2019-01-29T04:52:58.155Z,10.90
2019-01-29T04:55:25.383Z,10.00
2019-01-29T04:57:52.614Z,10.03
2019-01-29T05:03:13.730Z,11.47
2019-01-29T05:05:40.966Z,11.00
2019-01-29T05:08:08.530Z,10.73
2019-01-29T05:10:35.754Z,10.90
2019-01-29T05:13:02.991Z,11.63
2019-01-29T05:15:30.201Z,11.87
2019-01-29T05:17:57.738Z,11.67
2019-01-29T05:20:25.027Z,11.73
2019-01-29T05:22:52.551Z,11.50
2019-01-29T05:25:19.775Z,10.93
2019-01-29T05:27:47.114Z,11.00
2019-01-29T05:30:33.702Z,11.37
2019-01-29T05:33:00.906Z,11.10
2019-01-29T05:35:28.150Z,12.43
2019-01-29T05:37:55.369Z,11.83
2019-01-29T05:43:29.871Z,12.70
2019-01-29T05:45:57.411Z,12.23
2019-01-29T05:48:24.625Z,13.23
2019-01-29T05:50:52.135Z,12.67
2019-01-29T05:53:19.361Z,14.27
2019-01-29T05:55:46.818Z,14.77
2019-01-29T05:58:14.034Z,13.50
2019-01-29T06:00:41.446Z,13.40
2019-01-29T06:03:08.732Z,13.50
2019-01-29T06:05:35.946Z,13.73
2019-01-29T06:08:05.174Z,13.57
2019-01-29T06:10:32.450Z,14.37
2019-01-29T06:12:59.684Z,14.93
2019-01-29T06:15:26.950Z,13.90
2019-01-29T06:17:54.453Z,13.20
2019-01-29T06:20:41.279Z,13.47
2019-01-29T06:23:08.496Z,12.37
2019-01-29T06:25:35.710Z,13.97
2019-01-29T06:28:03.013Z,14.10
2019-01-29T06:30:30.225Z,14.23
2019-01-29T06:32:57.438Z,14.27
2019-01-29T06:35:24.686Z,13.80
2019-01-29T06:37:52.224Z,14.23
2019-01-29T06:43:26.699Z,14.30
2019-01-29T06:45:54.213Z,14.33
2019-01-29T06:48:21.457Z,14.63
2019-01-29T06:50:48.678Z,15.07
2019-01-29T06:53:15.898Z,15.37
2019-01-29T06:55:43.154Z,14.77
2019-01-29T06:58:10.627Z,14.63
2019-01-29T07:00:37.906Z,15.17
2019-01-29T07:03:05.137Z,16.40
2019-01-29T07:05:32.374Z,14.57
2019-01-29T07:07:59.583Z,16.60
2019-01-29T07:13:20.756Z,15.03
2019-01-29T07:18:55.739Z,16.03
2019-01-29T07:21:22.980Z,15.83
2019-01-29T07:23:51.476Z,15.70
2019-01-29T07:26:18.986Z,15.07
2019-01-29T07:28:46.259Z,14.00
2019-01-29T07:31:13.505Z,14.80
2019-01-29T07:33:42.014Z,14.00
2019-01-29T07:36:09.661Z,13.80
2019-01-29T07:38:36.902Z,13.37
2019-01-29T07:41:04.399Z,13.17
2019-01-29T07:43:31.618Z,13.10
2019-01-29T07:45:58.857Z,12.80
2019-01-29T07:48:26.093Z,13.37
2019-01-29T07:50:53.517Z,13.33
2019-01-29T07:53:21.153Z,12.73
2019-01-29T07:58:23.130Z,12.77
2019-01-29T08:00:50.764Z,13.83
2019-01-29T08:03:18.343Z,13.17
2019-01-29T08:05:45.926Z,12.17
2019-01-29T08:08:13.496Z,11.37
2019-01-29T08:10:40.737Z,12.73
2019-01-29T08:13:08.042Z,11.77
2019-01-29T08:15:35.281Z,10.37
2019-01-29T08:18:02.520Z,10.50
2019-01-29T08:20:29.984Z,10.47
2019-01-29T08:22:57.267Z,10.60
2019-01-29T08:25:24.490Z,11.30
2019-01-29T08:27:51.734Z,11.63
2019-01-29T08:33:26.226Z,11.57
2019-01-29T08:35:53.441Z,10.57
2019-01-29T08:38:20.662Z,12.97
2019-01-29T08:40:47.903Z,12.90
2019-01-29T08:43:15.458Z,12.33
2019-01-29T08:45:42.668Z,11.03
2019-01-29T08:48:10.258Z,10.70
2019-01-29T08:50:37.486Z,10.10
2019-01-29T08:53:04.849Z,10.40
2019-01-29T08:55:32.086Z,9.17
2019-01-29T08:57:59.300Z,8.00
2019-01-29T09:00:26.541Z,12.17
2019-01-29T09:02:53.742Z,8.73
2019-01-29T09:05:21.198Z,7.73
2019-01-29T09:07:48.603Z,6.87
2019-01-29T09:13:09.273Z,6.17
2019-01-29T09:15:36.502Z,5.50
2019-01-29T09:20:57.708Z,5.80
2019-01-29T09:23:24.918Z,5.80
2019-01-29T09:25:52.131Z,5.07
2019-01-29T09:28:19.372Z,5.67
2019-01-29T09:30:46.602Z,5.30
2019-01-29T09:33:14.133Z,4.73
2019-01-29T09:35:41.346Z,4.97
2019-01-29T09:38:08.597Z,4.40
2019-01-29T09:40:35.910Z,4.97
2019-01-29T09:45:37.522Z,4.40
2019-01-29T09:48:05.012Z,4.47
2019-01-29T09:50:32.222Z,4.63
2019-01-29T09:52:59.443Z,4.30
2019-01-29T09:55:29.451Z,4.03
2019-01-29T09:57:55.607Z,4.20
2019-01-29T10:00:42.427Z,3.80
2019-01-29T10:03:09.642Z,4.10
2019-01-29T10:05:36.914Z,4.30
2019-01-29T10:10:57.921Z,4.53
2019-01-29T10:13:25.129Z,3.60
2019-01-29T10:15:52.367Z,3.70
2019-01-29T10:18:19.576Z,3.60
2019-01-29T10:20:46.833Z,3.43
2019-01-29T10:23:14.054Z,4.10
2019-01-29T10:25:41.282Z,3.73
2019-01-29T10:28:08.487Z,4.17
2019-01-29T10:30:35.714Z,4.13
2019-01-29T10:33:02.985Z,4.40
2019-01-29T10:35:30.506Z,4.70
2019-01-29T10:37:57.873Z,4.30
2019-01-29T10:43:19.501Z,4.70
2019-01-29T10:45:46.805Z,3.83
2019-01-29T10:48:14.310Z,3.67
2019-01-29T10:50:41.522Z,3.50
2019-01-29T10:53:09.124Z,3.67
2019-01-29T10:55:36.330Z,2.80
2019-01-29T11:00:57.554Z,2.70
2019-01-29T11:03:24.768Z,3.30
2019-01-29T11:05:51.970Z,2.50
2019-01-29T11:08:19.198Z,2.40
2019-01-29T11:10:46.563Z,2.30
2019-01-29T11:13:13.897Z,2.80
2019-01-29T11:18:35.339Z,2.70
2019-01-29T11:21:02.919Z,2.40
2019-01-29T11:23:31.375Z,2.67
2019-01-29T11:26:01.480Z,2.60
2019-01-29T11:28:29.000Z,2.50
2019-01-29T11:30:56.487Z,2.80
2019-01-29T11:33:24.450Z,2.90
2019-01-29T11:35:54.181Z,2.90
2019-01-29T11:38:21.426Z,2.93
2019-01-29T11:40:48.663Z,2.90
2019-01-29T11:43:15.902Z,2.53
2019-01-29T11:48:36.746Z,2.47
2019-01-29T11:51:04.041Z,2.50
2019-01-29T11:53:31.518Z,2.30
2019-01-29T11:56:04.344Z,2.53
2019-01-29T11:58:27.698Z,3.13
2019-01-29T12:03:43.009Z,3.17
2019-01-29T12:06:10.214Z,2.83
2019-01-29T12:08:37.763Z,3.40
2019-01-29T12:11:04.966Z,2.50
2019-01-29T12:13:32.467Z,2.50
2019-01-29T12:15:59.695Z,2.53
2019-01-29T12:18:26.965Z,2.40
2019-01-29T12:20:54.535Z,2.43
2019-01-29T12:23:21.733Z,2.60
2019-01-29T12:25:48.973Z,2.70
2019-01-29T12:28:16.193Z,2.50
2019-01-29T12:30:43.414Z,2.53
2019-01-29T12:33:10.639Z,3.80
2019-01-29T12:35:38.242Z,3.80
2019-01-29T12:38:05.552Z,3.63
2019-01-29T12:40:33.057Z,4.60
2019-01-29T12:43:00.281Z,2.87
2019-01-29T12:45:27.765Z,2.53
2019-01-29T12:55:57.974Z,2.17
2019-01-29T12:58:25.198Z,2.50
2019-01-29T13:03:26.650Z,2.37
2019-01-29T13:05:53.889Z,2.10
2019-01-29T13:08:21.358Z,2.13
2019-01-29T13:10:48.562Z,2.30
2019-01-29T13:13:15.790Z,2.17
2019-01-29T13:15:43.011Z,2.20
2019-01-29T13:18:12.078Z,5.23
2019-01-29T13:20:39.206Z,3.87
2019-01-29T13:23:06.705Z,2.77
2019-01-29T13:25:33.910Z,2.67
2019-01-29T13:28:01.120Z,3.40
2019-01-29T13:30:47.687Z,4.93
2019-01-29T13:33:14.988Z,6.73
2019-01-29T13:35:42.272Z,6.07
2019-01-29T13:41:03.372Z,2.70
2019-01-29T13:43:30.913Z,3.53
2019-01-29T13:45:58.117Z,2.80
2019-01-29T13:48:25.618Z,2.10
2019-01-29T13:56:25.563Z,2.60
2019-01-29T13:58:52.785Z,2.10
2019-01-29T14:01:20.010Z,4.13
2019-01-29T14:03:47.214Z,2.40
2019-01-29T14:06:14.442Z,2.30
2019-01-29T14:08:41.650Z,2.20
2019-01-29T14:11:08.875Z,2.97
2019-01-29T14:13:36.077Z,2.30
2019-01-29T14:18:38.035Z,3.23
2019-01-29T14:21:05.310Z,3.70
2019-01-29T14:23:32.806Z,2.67
2019-01-29T14:26:00.015Z,2.93
2019-01-29T14:28:27.234Z,2.17
2019-01-29T14:30:54.434Z,2.53
2019-01-29T14:33:21.738Z,2.50
2019-01-29T14:35:48.965Z,3.10
2019-01-29T14:38:35.766Z,2.83
2019-01-29T14:41:02.970Z,2.43
2019-01-29T14:43:49.538Z,2.70
2019-01-29T14:46:16.771Z,2.93
2019-01-29T14:48:43.970Z,2.63
2019-01-29T14:51:11.210Z,3.60
2019-01-29T14:53:38.413Z,3.37
2019-01-29T14:56:05.619Z,2.73
2019-01-29T14:58:32.924Z,2.87
2019-01-29T15:01:00.134Z,3.30
2019-01-29T15:03:27.367Z,3.43
2019-01-29T15:05:54.582Z,3.23
2019-01-29T15:08:21.911Z,2.30
2019-01-29T15:10:49.482Z,2.00
2019-01-29T15:13:16.691Z,2.27
2019-01-29T15:16:03.195Z,2.20
2019-01-29T15:18:49.684Z,2.27
2019-01-29T15:21:16.913Z,3.27
2019-01-29T15:23:44.446Z,3.97
2019-01-29T15:26:11.670Z,2.43
2019-01-29T15:28:38.898Z,2.50
2019-01-29T15:31:06.101Z,2.03
2019-01-29T15:33:33.334Z,1.90
2019-01-29T15:36:00.539Z,1.93
2019-01-29T15:38:28.054Z,1.73
2019-01-29T15:40:55.262Z,2.00
2019-01-29T15:43:22.762Z,1.97
2019-01-29T15:45:49.967Z,2.43
2019-01-29T15:48:17.225Z,1.97
2019-01-29T15:50:44.450Z,1.90
2019-01-29T15:53:11.682Z,1.70
2019-01-29T15:55:38.886Z,2.10
2019-01-29T16:01:00.111Z,1.70
2019-01-29T16:03:27.317Z,2.07
2019-01-29T16:05:54.533Z,2.20
2019-01-29T16:08:22.114Z,2.10
2019-01-29T16:10:49.337Z,1.90
2019-01-29T16:13:16.578Z,2.17
2019-01-29T16:15:44.169Z,2.00
2019-01-29T16:21:18.638Z,2.20
2019-01-29T16:23:45.866Z,2.63
2019-01-29T16:26:13.098Z,3.13
2019-01-29T16:28:40.666Z,2.40
2019-01-29T16:31:07.896Z,2.93
2019-01-29T16:33:35.127Z,3.10
2019-01-29T16:36:02.354Z,2.80
2019-01-29T16:38:29.575Z,2.83
2019-01-29T16:41:00.735Z,2.80
2019-01-29T16:43:26.049Z,2.47
2019-01-29T16:45:53.250Z,2.57
2019-01-29T16:48:20.483Z,2.13
2019-01-29T16:50:47.719Z,2.40
2019-01-29T16:53:14.926Z,2.53
2019-01-29T16:55:42.482Z,2.10
2019-01-29T16:58:09.691Z,2.73
2019-01-29T17:00:56.258Z,2.60
2019-01-29T17:03:23.463Z,2.27
2019-01-29T17:05:50.690Z,2.60
2019-01-29T17:08:17.906Z,2.93
2019-01-29T17:10:45.101Z,3.07
2019-01-29T17:13:12.597Z,2.60
2019-01-29T17:15:39.869Z,2.70
2019-01-29T17:21:00.594Z,2.63
2019-01-29T17:23:28.225Z,2.40
2019-01-29T17:25:55.453Z,2.40
2019-01-29T17:28:23.030Z,2.30
2019-01-29T17:30:50.254Z,2.70
2019-01-29T17:36:05.553Z,2.83
2019-01-29T17:38:32.758Z,2.60
2019-01-29T17:40:59.971Z,2.97
2019-01-29T17:43:27.535Z,2.50
2019-01-29T17:45:55.090Z,2.60
2019-01-29T17:48:22.646Z,3.30
2019-01-29T17:50:49.946Z,2.53
2019-01-29T17:53:17.154Z,2.77
2019-01-29T17:58:38.379Z,3.97
2019-01-29T18:04:13.125Z,3.63
2019-01-29T18:06:40.582Z,4.03
2019-01-29T18:12:01.247Z,4.03
2019-01-29T18:14:28.489Z,4.37
2019-01-29T18:16:55.694Z,4.47
2019-01-29T18:19:22.905Z,5.00
2019-01-29T18:21:56.618Z,4.60
2019-01-29T18:24:19.362Z,4.63
2019-01-29T18:26:46.586Z,4.03
2019-01-29T18:29:13.793Z,4.20
2019-01-29T18:31:40.999Z,4.00
2019-01-29T18:34:08.221Z,3.90
2019-01-29T18:36:35.426Z,3.50
2019-01-29T18:41:36.752Z,3.77
2019-01-29T18:44:04.026Z,3.80
2019-01-29T18:46:31.252Z,4.40
2019-01-29T18:48:58.510Z,4.53
2019-01-29T18:51:25.750Z,4.50
2019-01-29T18:53:52.957Z,5.47
2019-01-29T18:56:20.531Z,4.67
2019-01-29T18:58:47.729Z,5.03
2019-01-29T19:01:15.234Z,5.20
2019-01-29T19:03:42.794Z,5.90
2019-01-29T19:06:10.010Z,5.43
2019-01-29T19:08:37.249Z,5.67
2019-01-29T19:11:04.454Z,5.27
2019-01-29T19:13:31.666Z,5.60
2019-01-29T19:15:59.157Z,6.03
2019-01-29T19:18:26.714Z,6.10
2019-01-29T19:20:53.958Z,5.90
2019-01-29T19:23:21.169Z,5.70
2019-01-29T19:25:48.375Z,5.60
2019-01-29T19:28:21.806Z,5.80
2019-01-29T19:30:44.855Z,6.57
2019-01-29T19:33:12.090Z,5.47
2019-01-29T19:35:39.338Z,5.37
2019-01-29T19:38:06.770Z,4.70
2019-01-29T19:40:34.006Z,4.80
2019-01-29T19:43:01.205Z,5.43
2019-01-29T19:48:22.010Z,5.60
2019-01-29T19:50:49.242Z,5.20
2019-01-29T19:53:16.444Z,5.40
2019-01-29T19:55:43.665Z,4.83
2019-01-29T19:58:10.879Z,5.17
2019-01-29T20:03:32.210Z,5.43
2019-01-29T20:05:59.569Z,5.27
2019-01-29T20:08:26.797Z,5.00
2019-01-29T20:10:53.995Z,4.53
2019-01-29T20:13:21.226Z,4.47
2019-01-29T20:15:48.706Z,4.53
2019-01-29T20:18:16.358Z,4.27
2019-01-29T20:20:43.565Z,4.47
2019-01-29T20:23:10.803Z,4.30
2019-01-29T20:25:38.009Z,3.97
2019-01-29T20:30:58.502Z,4.03
2019-01-29T20:33:25.730Z,4.40
2019-01-29T20:35:52.953Z,4.00
2019-01-29T20:38:21.690Z,3.77
2019-01-29T20:40:49.109Z,4.60
2019-01-29T20:43:16.612Z,3.83
2019-01-29T20:45:43.834Z,3.57
2019-01-29T20:48:11.044Z,3.73
2019-01-29T20:50:38.674Z,4.13
2019-01-29T20:53:05.887Z,3.77
2019-01-29T20:55:33.390Z,3.73
2019-01-29T20:58:00.837Z,3.13
2019-01-29T21:00:47.398Z,3.43
2019-01-29T21:03:14.914Z,3.37
2019-01-29T21:05:42.145Z,2.97
2019-01-29T21:08:09.365Z,2.80
2019-01-29T21:10:37.062Z,2.83
2019-01-29T21:13:04.297Z,2.90
2019-01-29T21:15:38.210Z,2.80
2019-01-29T21:18:00.417Z,2.97
2019-01-29T21:23:21.617Z,2.63
2019-01-29T21:25:48.843Z,2.90
2019-01-29T21:28:16.392Z,2.60
2019-01-29T21:30:44.048Z,2.80
2019-01-29T21:33:12.644Z,3.30
2019-01-29T21:35:39.882Z,3.17
2019-01-29T21:38:07.082Z,2.87
2019-01-29T21:40:34.314Z,3.20
2019-01-29T21:43:01.525Z,3.70
2019-01-29T21:45:28.761Z,2.90
2019-01-29T21:51:03.642Z,3.43
2019-01-29T21:53:30.922Z,3.60
2019-01-29T21:55:58.157Z,3.50
2019-01-29T21:58:25.418Z,4.03
2019-01-29T22:00:52.952Z,3.83
2019-01-29T22:03:20.174Z,3.50
2019-01-29T22:05:47.378Z,3.80
2019-01-29T22:08:14.659Z,4.60
2019-01-29T22:10:41.893Z,4.00
2019-01-29T22:13:09.123Z,3.93
2019-01-29T22:15:36.329Z,3.47
2019-01-29T22:20:57.267Z,4.13
2019-01-29T22:23:24.735Z,3.83
2019-01-29T22:25:51.975Z,3.97
2019-01-29T22:28:19.165Z,4.10
2019-01-29T22:30:46.391Z,4.20
2019-01-29T22:33:13.942Z,4.47
2019-01-29T22:35:41.169Z,4.43
2019-01-29T22:38:08.655Z,4.70
2019-01-29T22:40:35.877Z,4.60
2019-01-29T22:43:03.170Z,4.87
2019-01-29T22:45:30.441Z,4.53
2019-01-29T22:47:57.732Z,4.77
2019-01-29T22:50:44.521Z,4.90
2019-01-29T22:53:11.745Z,4.63
2019-01-29T22:55:38.958Z,4.90
2019-01-29T22:58:06.269Z,5.20
2019-01-29T23:06:53.827Z,5.30
2019-01-29T23:09:21.025Z,4.93
2019-01-29T23:11:48.232Z,4.60
2019-01-29T23:14:15.458Z,4.70
2019-01-29T23:16:42.681Z,4.90
2019-01-29T23:19:09.890Z,4.90
2019-01-29T23:21:37.113Z,4.90
2019-01-29T23:27:11.830Z,4.20
2019-01-29T23:29:43.515Z,4.70
2019-01-29T23:32:07.983Z,5.17
2019-01-29T23:34:35.209Z,5.10
2019-01-29T23:37:02.681Z,4.80
2019-01-29T23:39:29.917Z,4.17
2019-01-29T23:41:57.160Z,3.67
2019-01-29T23:44:24.757Z,4.67
2019-01-29T23:46:51.978Z,4.37
2019-01-29T23:49:19.455Z,4.57
2019-01-29T23:51:46.705Z,4.70
2019-01-29T23:54:13.894Z,4.50
2019-01-29T23:56:41.097Z,5.17
2019-01-29T23:59:08.322Z,4.80
